Chris W — WDE7976 — position and weather

sailwx.info

Track history (hours):
 
Tides and Currents Weather Stations Pressure Air Temp Water Temp Dewpoint Dewpoint Depression Visibility Wind Speed Wind Dir Waves Ship Positions

Chris W

Owner: E & B Oilfield Services LLC, HOUMA, LA. More information available from US FCC via Universal Licensing System and Coast Guard Vessel Documentation Center.

Last reported at 2018-Feb-24 14:42 UTC. Time now 2018-Feb-25 19:43 UTC.
Position N 29°33' W 090°26'.

Length 14 m; draft 2.5 m.

Type: Other ship. MMSI: 367400020.

Date/timePositionNaut miles runAvg speedWind from/ knotsBaromVisibWave heightAir tempDewpointWater temp
2018-Feb-24 14:42N 29°33' W 090°26'1 4.7
2018-Feb-24 14:23N 29°33' W 090°28'2 4.6
2018-Feb-24 14:00N 29°34' W 090°30'2 4.6
2018-Feb-24 13:30N 29°34' W 090°33'2 4.5
2018-Feb-24 12:58N 29°35' W 090°35'1 0.1
2018-Feb-23 22:03N 29°35' W 090°37'0 0.0
2018-Feb-23 22:00N 29°35' W 090°37'0 0.3
2018-Feb-23 21:30N 29°35' W 090°37'1 2.8
2018-Feb-23 21:00N 29°35' W 090°38'2 4.9
2018-Feb-23 20:31N 29°36' W 090°41'2 3.3
2018-Feb-23 20:01N 29°36' W 090°43'2 4.2
2018-Feb-23 19:30N 29°34' W 090°43'  
2018-Feb-20 20:18N 29°34' W 090°42'  
2018-Feb-15 20:55N 29°34' W 090°42'0 0.5
2018-Feb-15 20:30N 29°34' W 090°42'0 0.0
2018-Feb-15 20:00N 29°34' W 090°42'0 0.1
2018-Feb-15 19:31N 29°34' W 090°42'0 0.0
2018-Feb-15 19:01N 29°34' W 090°42'0 0.4
2018-Feb-15 18:30N 29°34' W 090°42'0 0.4
2018-Feb-15 18:00N 29°34' W 090°42'0 0.5
2018-Feb-15 17:30N 29°34' W 090°42'0 0.1
2018-Feb-15 17:00N 29°34' W 090°42'0 0.0
2018-Feb-15 16:30N 29°34' W 090°42'0 0.0
2018-Feb-15 16:00N 29°34' W 090°42'0 0.0
2018-Feb-15 15:30N 29°34' W 090°42'0 0.8
2018-Feb-15 15:00N 29°34' W 090°43'2 4.2
2018-Feb-15 14:30N 29°36' W 090°43'1 2.5
2018-Feb-15 14:00N 29°37' W 090°42'1 1.2
2018-Feb-15 13:30N 29°36' W 090°41'0 0.0
2018-Feb-14 19:38N 29°36' W 090°41'0 0.0
2018-Feb-14 19:30N 29°36' W 090°41'0 0.0
2018-Feb-14 19:00N 29°36' W 090°41'0 0.0
2018-Feb-14 18:27N 29°36' W 090°41'  
Track history (hours):
 
Tides and Currents Weather Stations Pressure Air Temp Water Temp Dewpoint Dewpoint Depression Visibility Wind Speed Wind Dir Waves Ship Positions

Chris W

Owner: E & B Oilfield Services LLC, HOUMA, LA. More information available from US FCC via Universal Licensing System and Coast Guard Vessel Documentation Center.

Last reported at 2018-Feb-24 14:42 UTC. Time now 2018-Feb-25 19:43 UTC.
Position N 29°33' W 090°26'.

Length 14 m; draft 2.5 m.

Type: Other ship. MMSI: 367400020.

Date/timePositionNaut miles runAvg speedWind from/ knotsBaromVisibWave heightAir tempDewpointWater temp
2018-Feb-24 14:42N 29°33' W 090°26'1 4.7
2018-Feb-24 14:23N 29°33' W 090°28'2 4.6
2018-Feb-24 14:00N 29°34' W 090°30'2 4.6
2018-Feb-24 13:30N 29°34' W 090°33'2 4.5
2018-Feb-24 12:58N 29°35' W 090°35'1 0.1
2018-Feb-23 22:03N 29°35' W 090°37'0 0.0
2018-Feb-23 22:00N 29°35' W 090°37'0 0.3
2018-Feb-23 21:30N 29°35' W 090°37'1 2.8
2018-Feb-23 21:00N 29°35' W 090°38'2 4.9
2018-Feb-23 20:31N 29°36' W 090°41'2 3.3
2018-Feb-23 20:01N 29°36' W 090°43'2 4.2
2018-Feb-23 19:30N 29°34' W 090°43'  
2018-Feb-20 20:18N 29°34' W 090°42'  
2018-Feb-15 20:55N 29°34' W 090°42'0 0.5
2018-Feb-15 20:30N 29°34' W 090°42'0 0.0
2018-Feb-15 20:00N 29°34' W 090°42'0 0.1
2018-Feb-15 19:31N 29°34' W 090°42'0 0.0
2018-Feb-15 19:01N 29°34' W 090°42'0 0.4
2018-Feb-15 18:30N 29°34' W 090°42'0 0.4
2018-Feb-15 18:00N 29°34' W 090°42'0 0.5
2018-Feb-15 17:30N 29°34' W 090°42'0 0.1
2018-Feb-15 17:00N 29°34' W 090°42'0 0.0
2018-Feb-15 16:30N 29°34' W 090°42'0 0.0
2018-Feb-15 16:00N 29°34' W 090°42'0 0.0
2018-Feb-15 15:30N 29°34' W 090°42'0 0.8
2018-Feb-15 15:00N 29°34' W 090°43'2 4.2
2018-Feb-15 14:30N 29°36' W 090°43'1 2.5
2018-Feb-15 14:00N 29°37' W 090°42'1 1.2
2018-Feb-15 13:30N 29°36' W 090°41'0 0.0
2018-Feb-14 19:38N 29°36' W 090°41'0 0.0
2018-Feb-14 19:30N 29°36' W 090°41'0 0.0
2018-Feb-14 19:00N 29°36' W 090°41'0 0.0
2018-Feb-14 18:27N 29°36' W 090°41'  

Dump ship's entire track history